createdAt,value
2023-02-02T00:01:25.312Z,81.95
2023-02-02T00:03:53.687Z,82.88
2023-02-02T00:06:22.996Z,82.81
2023-02-02T00:08:51.012Z,82.96
2023-02-02T00:11:20.171Z,83.80
2023-02-02T00:13:48.148Z,83.35
2023-02-02T00:16:36.219Z,82.96
2023-02-02T00:19:05.959Z,83.93
2023-02-02T00:21:33.773Z,83.15
2023-02-02T00:24:01.589Z,82.59
2023-02-02T00:26:29.367Z,84.53
2023-02-02T00:28:57.030Z,84.90
2023-02-02T00:31:26.108Z,86.14
2023-02-02T00:33:53.785Z,85.53
2023-02-02T00:36:22.342Z,85.66
2023-02-02T00:38:51.209Z,86.20
2023-02-02T00:41:18.853Z,85.40
2023-02-02T00:43:48.068Z,85.38
2023-02-02T00:46:18.708Z,85.29
2023-02-02T00:48:48.229Z,84.75
2023-02-02T00:51:15.809Z,84.70
2023-02-02T00:53:43.483Z,84.62
2023-02-02T00:56:11.875Z,84.81
2023-02-02T00:58:39.439Z,85.10
2023-02-02T01:01:16.627Z,84.69
2023-02-02T01:03:44.315Z,84.27
2023-02-02T01:06:13.241Z,85.15
2023-02-02T01:08:40.956Z,84.84
2023-02-02T01:11:08.905Z,84.34
2023-02-02T01:13:37.168Z,84.26
2023-02-02T01:16:06.271Z,84.33
2023-02-02T01:18:33.966Z,84.60
2023-02-02T01:21:03.263Z,84.50
2023-02-02T01:23:33.131Z,83.77
2023-02-02T01:26:02.905Z,83.75
2023-02-02T01:28:30.902Z,82.70
2023-02-02T01:30:59.350Z,83.26
2023-02-02T01:33:27.513Z,83.14
2023-02-02T01:35:57.233Z,82.81
2023-02-02T01:38:25.673Z,83.08
2023-02-02T01:40:56.064Z,83.68
2023-02-02T01:43:25.935Z,83.86
2023-02-02T01:45:54.614Z,83.73
2023-02-02T01:48:25.357Z,84.11
2023-02-02T01:50:57.296Z,84.24
2023-02-02T01:53:25.112Z,84.59
2023-02-02T01:55:54.180Z,84.37
2023-02-02T01:58:24.743Z,85.63
2023-02-02T02:00:53.276Z,86.95
2023-02-02T02:03:23.941Z,87.56
2023-02-02T02:05:56.996Z,88.02
2023-02-02T02:08:29.015Z,87.89
2023-02-02T02:10:59.232Z,87.04
2023-02-02T02:13:43.314Z,86.59
2023-02-02T02:16:19.713Z,86.91
2023-02-02T02:18:56.541Z,86.16
2023-02-02T02:22:02.408Z,85.96
2023-02-02T02:25:26.448Z,86.54
2023-02-02T02:28:24.047Z,85.29
2023-02-02T02:31:20.480Z,86.28
2023-02-02T02:33:58.493Z,86.59
2023-02-02T02:36:34.200Z,86.10
2023-02-02T02:39:09.954Z,86.56
2023-02-02T02:41:42.978Z,86.50
2023-02-02T02:44:13.741Z,87.08
2023-02-02T02:46:41.813Z,86.41
2023-02-02T02:49:12.841Z,86.60
2023-02-02T02:51:46.127Z,87.20
2023-02-02T02:54:21.928Z,87.44
2023-02-02T02:56:59.131Z,87.42
2023-02-02T02:59:38.221Z,87.95
2023-02-02T03:02:19.855Z,87.85
2023-02-02T03:04:56.799Z,87.94
2023-02-02T03:07:30.166Z,88.27
2023-02-02T03:09:59.341Z,87.60
2023-02-02T03:12:27.073Z,87.86
2023-02-02T03:14:54.645Z,87.76
2023-02-02T03:17:22.847Z,88.39
2023-02-02T03:19:51.705Z,88.28
2023-02-02T03:22:19.227Z,88.10
2023-02-02T03:24:46.860Z,88.56
2023-02-02T03:27:14.456Z,88.35
2023-02-02T03:29:42.008Z,88.29
2023-02-02T03:32:09.544Z,87.56
2023-02-02T03:34:37.101Z,87.54
2023-02-02T03:37:06.054Z,87.65
2023-02-02T03:39:33.590Z,87.91
2023-02-02T03:42:01.162Z,87.81
2023-02-02T03:44:28.758Z,88.46
2023-02-02T03:46:56.785Z,88.37
2023-02-02T03:49:24.417Z,88.65
2023-02-02T03:51:52.035Z,88.63
2023-02-02T03:54:20.917Z,88.95
2023-02-02T03:56:48.524Z,88.47
2023-02-02T03:59:16.123Z,88.52
2023-02-02T04:01:43.669Z,88.65
2023-02-02T04:04:11.301Z,88.10
2023-02-02T04:06:38.864Z,88.62
2023-02-02T04:09:06.522Z,88.92
2023-02-02T04:11:35.892Z,88.93
2023-02-02T04:14:03.432Z,88.79
2023-02-02T04:16:34.675Z,88.79
2023-02-02T04:19:02.277Z,88.94
2023-02-02T04:21:29.866Z,88.88
2023-02-02T04:23:57.797Z,87.91
2023-02-02T04:26:26.191Z,87.85
2023-02-02T04:28:55.099Z,88.06
2023-02-02T04:31:22.778Z,88.09
2023-02-02T04:33:50.598Z,87.71
2023-02-02T04:36:18.163Z,88.18
2023-02-02T04:38:49.686Z,87.28
2023-02-02T04:41:18.648Z,88.10
2023-02-02T04:43:46.954Z,87.95
2023-02-02T04:46:16.306Z,87.15
2023-02-02T04:48:44.172Z,87.92
2023-02-02T04:51:14.397Z,88.05
2023-02-02T04:53:42.745Z,87.94
2023-02-02T04:56:13.484Z,88.88
2023-02-02T04:58:41.241Z,88.82
2023-02-02T05:01:12.740Z,88.96
2023-02-02T05:03:44.071Z,88.44
2023-02-02T05:06:14.742Z,89.16
2023-02-02T05:08:43.953Z,89.13
2023-02-02T05:11:16.970Z,89.02
2023-02-02T05:13:47.201Z,89.16
2023-02-02T05:16:15.759Z,88.79
2023-02-02T05:18:49.617Z,89.25
2023-02-02T05:21:17.151Z,89.25
2023-02-02T05:23:44.845Z,89.43
2023-02-02T05:26:16.986Z,89.86
2023-02-02T05:28:44.578Z,89.13
2023-02-02T05:31:12.823Z,89.48
2023-02-02T05:33:40.771Z,88.87
2023-02-02T05:36:10.425Z,88.92
2023-02-02T05:38:38.062Z,89.58
2023-02-02T05:41:05.979Z,89.47
2023-02-02T05:43:34.195Z,89.81
2023-02-02T05:46:01.856Z,89.66
2023-02-02T05:48:29.495Z,89.14
2023-02-02T05:51:02.252Z,88.79
2023-02-02T05:53:32.355Z,89.09
2023-02-02T05:56:00.467Z,89.54
2023-02-02T05:58:28.882Z,89.26
2023-02-02T06:00:56.886Z,89.51
2023-02-02T06:03:24.909Z,88.61
2023-02-02T06:05:52.611Z,88.81
2023-02-02T06:08:20.212Z,89.07
2023-02-02T06:10:49.253Z,89.25
2023-02-02T06:13:16.900Z,88.75
2023-02-02T06:15:44.508Z,88.49
2023-02-02T06:18:12.183Z,88.94
2023-02-02T06:20:39.775Z,88.62
2023-02-02T06:23:07.815Z,88.94
2023-02-02T06:25:35.529Z,89.92
2023-02-02T06:28:04.776Z,89.53
2023-02-02T06:30:32.365Z,90.33
2023-02-02T06:33:01.422Z,90.80
2023-02-02T06:35:29.038Z,90.30
2023-02-02T06:37:56.603Z,91.32
2023-02-02T06:40:24.154Z,91.74
2023-02-02T06:42:56.876Z,91.53
2023-02-02T06:45:26.406Z,92.91
2023-02-02T06:47:55.076Z,92.20
2023-02-02T06:50:22.649Z,93.06
2023-02-02T06:52:50.606Z,94.10
2023-02-02T06:55:18.860Z,91.62
2023-02-02T06:57:46.775Z,90.47
2023-02-02T07:00:15.625Z,89.12
2023-02-02T07:02:47.339Z,90.13
2023-02-02T07:05:14.922Z,90.53
2023-02-02T07:07:42.492Z,90.93
2023-02-02T07:10:10.493Z,90.56
2023-02-02T07:12:58.040Z,90.86
2023-02-02T07:15:25.987Z,90.60
2023-02-02T07:17:56.714Z,90.64
2023-02-02T07:20:24.265Z,90.95
2023-02-02T07:22:51.884Z,90.96
2023-02-02T07:25:19.568Z,90.73
2023-02-02T07:27:47.757Z,90.37
2023-02-02T07:30:17.049Z,90.66
2023-02-02T07:32:48.056Z,90.15
2023-02-02T07:35:17.511Z,90.14
2023-02-02T07:37:45.230Z,89.97
2023-02-02T07:40:13.803Z,89.79
2023-02-02T07:42:41.425Z,89.56
2023-02-02T07:45:27.244Z,89.75
2023-02-02T07:47:59.657Z,89.10
2023-02-02T07:50:31.451Z,88.74
2023-02-02T07:53:00.249Z,89.12
2023-02-02T07:55:28.315Z,88.79
2023-02-02T07:57:58.798Z,88.23
2023-02-02T08:00:26.985Z,88.38
2023-02-02T08:02:54.883Z,88.29
2023-02-02T08:05:22.841Z,88.15
2023-02-02T08:07:52.024Z,88.08
2023-02-02T08:10:19.626Z,87.10
2023-02-02T08:12:47.164Z,87.43
2023-02-02T08:15:14.826Z,87.12
2023-02-02T08:17:46.357Z,87.53
2023-02-02T08:20:14.705Z,87.50
2023-02-02T08:22:42.365Z,87.36
2023-02-02T08:25:11.458Z,87.65
2023-02-02T08:27:39.012Z,87.50
2023-02-02T08:30:07.389Z,87.64
2023-02-02T08:32:34.963Z,87.12
2023-02-02T08:35:02.558Z,87.67
2023-02-02T08:37:30.274Z,87.77
2023-02-02T08:39:57.889Z,88.22
2023-02-02T08:42:26.985Z,87.97
2023-02-02T08:46:02.972Z,87.78
2023-02-02T08:47:42.080Z,87.79
2023-02-02T08:50:11.120Z,87.91
2023-02-02T08:52:38.685Z,87.56
2023-02-02T08:55:07.520Z,88.47
2023-02-02T08:57:36.434Z,88.02
2023-02-02T09:00:04.557Z,88.12
2023-02-02T09:02:32.427Z,87.78
2023-02-02T09:05:00.173Z,87.62
2023-02-02T09:07:27.783Z,87.92
2023-02-02T09:09:58.006Z,87.82
2023-02-02T09:12:27.446Z,87.46
2023-02-02T09:14:58.479Z,86.97
2023-02-02T09:17:30.012Z,87.37
2023-02-02T09:19:59.184Z,87.40
2023-02-02T09:22:28.914Z,87.36
2023-02-02T09:24:58.081Z,87.51
2023-02-02T09:27:27.243Z,87.34
2023-02-02T09:29:57.898Z,86.86
2023-02-02T09:32:27.047Z,87.31
2023-02-02T09:34:56.307Z,86.55
2023-02-02T09:37:26.471Z,86.35
2023-02-02T09:39:55.807Z,85.16
2023-02-02T09:42:44.406Z,86.16
2023-02-02T09:45:24.039Z,85.73
2023-02-02T09:47:58.358Z,85.94
2023-02-02T09:50:46.805Z,85.33
2023-02-02T09:53:21.348Z,85.32
2023-02-02T09:55:51.241Z,86.05
2023-02-02T09:58:22.989Z,85.98
2023-02-02T10:00:57.701Z,85.89
2023-02-02T10:03:31.934Z,86.08
2023-02-02T10:06:05.642Z,85.92
2023-02-02T10:08:37.035Z,86.28
2023-02-02T10:11:16.165Z,85.96
2023-02-02T10:13:45.656Z,84.71
2023-02-02T10:16:18.101Z,84.20
2023-02-02T10:18:51.160Z,83.38
2023-02-02T10:21:28.518Z,83.96
2023-02-02T10:23:58.425Z,84.72
2023-02-02T10:26:36.932Z,84.51
2023-02-02T10:29:13.601Z,84.44
2023-02-02T10:31:52.775Z,84.72
2023-02-02T10:34:26.763Z,84.25
2023-02-02T10:37:23.599Z,83.75
2023-02-02T10:40:05.921Z,82.68
2023-02-02T10:42:45.557Z,83.59
2023-02-02T10:45:18.679Z,83.46
2023-02-02T10:47:49.071Z,84.17
2023-02-02T10:50:19.530Z,84.12
2023-02-02T10:52:52.883Z,85.04
2023-02-02T10:55:22.706Z,84.86
2023-02-02T10:57:59.278Z,85.50
2023-02-02T11:00:32.974Z,85.34
2023-02-02T11:03:04.618Z,85.03
2023-02-02T11:05:50.275Z,85.00
2023-02-02T11:08:20.989Z,85.14
2023-02-02T11:10:53.085Z,85.04
2023-02-02T11:13:28.499Z,85.23
2023-02-02T11:16:38.836Z,84.58
2023-02-02T11:19:24.986Z,84.43
2023-02-02T11:21:56.152Z,83.62
2023-02-02T11:24:27.865Z,83.93
2023-02-02T11:26:57.554Z,82.98
2023-02-02T11:29:30.293Z,83.06
2023-02-02T11:31:58.531Z,82.53
2023-02-02T11:34:29.292Z,83.22
2023-02-02T11:37:15.640Z,82.84
2023-02-02T11:39:44.247Z,83.69
2023-02-02T11:42:16.965Z,83.25
2023-02-02T11:44:48.775Z,82.68
2023-02-02T11:47:21.771Z,83.37
2023-02-02T11:49:52.612Z,83.11
2023-02-02T11:52:23.766Z,82.75
2023-02-02T11:54:54.065Z,83.14
2023-02-02T11:57:24.008Z,82.31
2023-02-02T11:59:53.849Z,82.81
2023-02-02T12:02:30.997Z,82.62
2023-02-02T12:07:52.313Z,82.76
2023-02-02T12:10:24.109Z,82.92
2023-02-02T12:13:06.294Z,82.42
2023-02-02T12:15:47.265Z,82.76
2023-02-02T12:18:38.505Z,82.80
2023-02-02T12:21:08.900Z,82.19
2023-02-02T12:23:51.893Z,82.66
2023-02-02T12:26:25.472Z,82.15
2023-02-02T12:29:29.182Z,81.79
2023-02-02T12:32:12.308Z,82.06
2023-02-02T12:34:53.439Z,82.08
2023-02-02T12:37:33.822Z,82.23
2023-02-02T12:40:20.163Z,82.10
2023-02-02T12:43:06.779Z,81.79
2023-02-02T12:45:46.464Z,82.10
2023-02-02T12:48:22.809Z,82.51
2023-02-02T12:51:01.678Z,81.99
2023-02-02T12:53:42.968Z,81.42
2023-02-02T12:56:23.287Z,81.57
2023-02-02T12:58:58.268Z,81.76
2023-02-02T13:01:55.065Z,81.82
2023-02-02T13:04:46.724Z,81.81
2023-02-02T13:07:39.619Z,81.69
2023-02-02T13:10:17.127Z,81.43
2023-02-02T13:12:51.446Z,81.20
2023-02-02T13:15:23.957Z,81.09
2023-02-02T13:17:54.972Z,81.55
2023-02-02T13:20:36.047Z,80.98
2023-02-02T13:23:08.092Z,81.07
2023-02-02T13:25:41.626Z,81.29
2023-02-02T13:28:19.523Z,80.75
2023-02-02T13:30:51.086Z,81.12
2023-02-02T13:33:26.339Z,81.12
2023-02-02T13:35:56.643Z,81.45
2023-02-02T13:38:25.963Z,81.62
2023-02-02T13:40:56.300Z,81.62
2023-02-02T13:43:34.853Z,81.16
2023-02-02T13:46:10.016Z,81.24
2023-02-02T13:48:47.897Z,80.93
2023-02-02T13:51:39.298Z,80.90
2023-02-02T13:54:27.763Z,80.56
2023-02-02T13:57:00.426Z,80.45
2023-02-02T13:59:46.537Z,80.17
2023-02-02T14:02:23.625Z,79.49
2023-02-02T14:04:56.863Z,79.42
2023-02-02T14:07:31.867Z,79.33
2023-02-02T14:09:59.635Z,79.48
2023-02-02T14:12:31.526Z,79.76
2023-02-02T14:15:01.074Z,79.48
2023-02-02T14:17:54.440Z,79.17
2023-02-02T14:20:46.445Z,79.14
2023-02-02T14:23:52.161Z,79.38
2023-02-02T14:26:40.668Z,78.79
2023-02-02T14:29:39.348Z,78.92
2023-02-02T14:32:34.675Z,78.71
2023-02-02T14:35:40.715Z,78.75
2023-02-02T14:38:14.526Z,78.92
2023-02-02T14:40:51.778Z,78.85
2023-02-02T14:43:47.808Z,78.89
2023-02-02T14:46:34.289Z,78.72
2023-02-02T14:49:25.526Z,78.22
2023-02-02T14:52:01.207Z,77.70
2023-02-02T14:54:34.200Z,78.05
2023-02-02T14:57:05.520Z,77.62
2023-02-02T14:59:37.143Z,77.73
2023-02-02T15:02:16.376Z,77.77
2023-02-02T15:04:47.724Z,77.82
2023-02-02T15:07:38.776Z,77.78
2023-02-02T15:10:13.246Z,77.70
2023-02-02T15:12:44.352Z,77.67
2023-02-02T15:15:22.959Z,77.49
2023-02-02T15:18:03.610Z,77.12
2023-02-02T15:20:37.355Z,77.87
2023-02-02T15:23:10.151Z,77.51
2023-02-02T15:25:43.786Z,77.41
2023-02-02T15:28:20.192Z,77.95
2023-02-02T15:30:56.686Z,77.61
2023-02-02T15:33:30.555Z,78.05
2023-02-02T15:36:04.660Z,78.43
2023-02-02T15:38:36.700Z,78.01
2023-02-02T15:41:07.043Z,78.44
2023-02-02T15:43:35.737Z,78.38
2023-02-02T15:46:06.788Z,78.57
2023-02-02T15:48:36.293Z,78.47
2023-02-02T15:51:08.428Z,78.27
2023-02-02T15:53:48.775Z,78.54
2023-02-02T15:56:29.216Z,78.47
2023-02-02T15:58:59.276Z,79.80
2023-02-02T16:01:30.476Z,79.03
2023-02-02T16:04:10.003Z,79.38
2023-02-02T16:06:39.108Z,79.78
2023-02-02T16:09:08.401Z,80.11
2023-02-02T16:11:43.101Z,80.03
2023-02-02T16:14:18.302Z,80.47
2023-02-02T16:16:49.206Z,80.71
2023-02-02T16:19:20.841Z,80.76
2023-02-02T16:21:55.492Z,81.34
2023-02-02T16:24:27.546Z,81.51
2023-02-02T16:26:58.775Z,81.90
2023-02-02T16:29:28.049Z,81.71
2023-02-02T16:31:56.851Z,82.09
2023-02-02T16:34:47.177Z,81.61
2023-02-02T16:37:17.915Z,81.50
2023-02-02T16:39:45.621Z,81.37
2023-02-02T16:42:25.746Z,81.66
2023-02-02T16:44:53.505Z,81.73
2023-02-02T16:47:34.549Z,82.03
2023-02-02T16:50:28.560Z,81.64
2023-02-02T16:53:00.581Z,81.88
2023-02-02T16:55:43.416Z,81.71
2023-02-02T16:58:20.407Z,81.71
2023-02-02T17:01:08.834Z,81.42
2023-02-02T17:03:46.214Z,81.69
2023-02-02T17:06:14.728Z,81.38
2023-02-02T17:08:43.934Z,81.20
2023-02-02T17:11:23.172Z,80.73
2023-02-02T17:13:51.843Z,80.90
2023-02-02T17:16:21.679Z,80.40
2023-02-02T17:18:49.526Z,80.73
2023-02-02T17:21:20.652Z,80.58
2023-02-02T17:23:51.545Z,80.43
2023-02-02T17:26:19.620Z,82.13
2023-02-02T17:28:48.206Z,79.78
2023-02-02T17:31:17.658Z,79.60
2023-02-02T17:33:45.280Z,78.99
2023-02-02T17:36:14.053Z,79.11
2023-02-02T17:38:41.920Z,78.98
2023-02-02T17:41:14.096Z,78.90
2023-02-02T17:43:42.720Z,79.14
2023-02-02T17:46:12.619Z,78.26
2023-02-02T17:48:40.220Z,78.56
2023-02-02T17:51:15.093Z,78.72
2023-02-02T17:53:42.731Z,78.41
2023-02-02T17:56:11.664Z,78.90
2023-02-02T17:58:39.265Z,79.35
2023-02-02T18:01:07.829Z,79.53
2023-02-02T18:03:38.579Z,78.90
2023-02-02T18:06:06.626Z,79.57
2023-02-02T18:08:34.764Z,79.88
2023-02-02T18:11:02.371Z,79.95
2023-02-02T18:13:31.502Z,79.77
2023-02-02T18:15:59.654Z,79.33
2023-02-02T18:18:29.698Z,79.42
2023-02-02T18:20:58.839Z,79.78
2023-02-02T18:23:26.892Z,79.98
2023-02-02T18:25:54.604Z,80.19
2023-02-02T18:28:22.199Z,80.51
2023-02-02T18:30:51.192Z,80.52
2023-02-02T18:33:19.750Z,80.36
2023-02-02T18:35:48.917Z,80.62
2023-02-02T18:38:17.861Z,80.78
2023-02-02T18:40:45.508Z,80.98
2023-02-02T18:43:13.108Z,80.54
2023-02-02T18:45:40.655Z,80.82
2023-02-02T18:48:09.561Z,80.63
2023-02-02T18:50:37.147Z,81.03
2023-02-02T18:53:04.717Z,81.04
2023-02-02T18:55:32.224Z,80.93
2023-02-02T18:57:59.978Z,81.03
2023-02-02T19:00:27.630Z,81.10
2023-02-02T19:02:55.133Z,80.94
2023-02-02T19:05:41.415Z,80.70
2023-02-02T19:08:08.936Z,80.40
2023-02-02T19:10:36.487Z,80.88
2023-02-02T19:13:15.366Z,81.38
2023-02-02T19:15:43.132Z,82.01
2023-02-02T19:18:14.905Z,81.76
2023-02-02T19:20:45.818Z,82.03
2023-02-02T19:23:14.771Z,82.89
2023-02-02T19:25:46.270Z,82.69
2023-02-02T19:28:25.201Z,82.74
2023-02-02T19:30:54.674Z,83.01
2023-02-02T19:33:25.885Z,82.98
2023-02-02T19:35:55.301Z,83.48
2023-02-02T19:38:24.497Z,83.30
2023-02-02T19:40:52.585Z,82.88
2023-02-02T19:43:27.497Z,83.24
2023-02-02T19:45:55.582Z,83.52
2023-02-02T19:48:26.464Z,83.58
2023-02-02T19:50:56.072Z,83.25
2023-02-02T19:53:28.111Z,82.95
2023-02-02T19:55:55.740Z,83.00
2023-02-02T19:58:25.070Z,82.82
2023-02-02T20:00:54.578Z,82.78
2023-02-02T20:03:24.368Z,82.96
2023-02-02T20:05:53.355Z,82.47
2023-02-02T20:08:26.100Z,82.13
2023-02-02T20:10:55.847Z,82.39
2023-02-02T20:13:26.014Z,82.48
2023-02-02T20:16:03.615Z,82.33
2023-02-02T20:18:41.567Z,81.86
2023-02-02T20:21:21.197Z,81.50
2023-02-02T20:23:50.140Z,80.79
2023-02-02T20:26:23.642Z,80.86
2023-02-02T20:28:53.329Z,81.02
2023-02-02T20:31:23.373Z,80.38
2023-02-02T20:33:53.810Z,80.32
2023-02-02T20:36:35.514Z,80.42
2023-02-02T20:39:22.817Z,80.08
2023-02-02T20:41:50.556Z,80.42
2023-02-02T20:44:18.171Z,79.83
2023-02-02T20:46:45.804Z,79.94
2023-02-02T20:49:13.727Z,80.12
2023-02-02T20:51:41.411Z,79.54
2023-02-02T20:54:11.192Z,79.91
2023-02-02T20:56:38.815Z,79.08
2023-02-02T20:59:07.381Z,79.10
2023-02-02T21:01:35.259Z,78.99
2023-02-02T21:04:05.321Z,78.46
2023-02-02T21:06:32.907Z,78.79
2023-02-02T21:09:00.619Z,78.03
2023-02-02T21:11:29.670Z,77.84
2023-02-02T21:13:57.457Z,78.45
2023-02-02T21:16:25.075Z,77.98
2023-02-02T21:18:52.944Z,78.14
2023-02-02T21:21:22.460Z,77.82
2023-02-02T21:23:51.518Z,77.73
2023-02-02T21:26:21.908Z,77.43
2023-02-02T21:28:50.949Z,77.22
2023-02-02T21:31:18.848Z,77.78
2023-02-02T21:33:48.119Z,78.05
2023-02-02T21:36:35.945Z,77.86
2023-02-02T21:39:16.136Z,78.61
2023-02-02T21:41:43.827Z,78.48
2023-02-02T21:44:18.042Z,79.13
2023-02-02T21:46:47.959Z,78.76
2023-02-02T21:49:22.578Z,79.21
2023-02-02T21:51:50.599Z,79.26
2023-02-02T21:54:24.314Z,79.44
2023-02-02T21:56:53.229Z,79.44
2023-02-02T21:59:24.018Z,80.01
2023-02-02T22:01:52.853Z,80.27
2023-02-02T22:04:23.316Z,80.16
2023-02-02T22:06:53.396Z,80.11
2023-02-02T22:09:23.805Z,79.93
2023-02-02T22:11:55.825Z,79.75
2023-02-02T22:14:32.854Z,79.88
2023-02-02T22:17:01.043Z,80.06
2023-02-02T22:19:33.052Z,81.08
2023-02-02T22:22:21.794Z,81.34
2023-02-02T22:24:58.010Z,80.57
2023-02-02T22:27:27.596Z,81.48
2023-02-02T22:30:10.712Z,80.69
2023-02-02T22:32:38.263Z,81.18
2023-02-02T22:35:06.184Z,80.49
2023-02-02T22:37:33.898Z,80.16
2023-02-02T22:40:01.586Z,80.86
2023-02-02T22:42:29.169Z,80.36
2023-02-02T22:44:58.069Z,81.35
2023-02-02T22:47:25.751Z,80.44
2023-02-02T22:49:53.361Z,80.35
2023-02-02T22:52:21.120Z,80.62
2023-02-02T22:54:48.774Z,80.80
2023-02-02T22:57:16.436Z,80.63
2023-02-02T22:59:44.050Z,80.60
2023-02-02T23:02:13.014Z,80.82
2023-02-02T23:04:40.657Z,81.05
2023-02-02T23:07:08.208Z,80.83
2023-02-02T23:09:35.816Z,81.37
2023-02-02T23:12:03.649Z,80.93
2023-02-02T23:14:31.287Z,81.57
2023-02-02T23:16:58.995Z,81.70
2023-02-02T23:19:27.899Z,81.53
2023-02-02T23:21:55.485Z,81.81
2023-02-02T23:24:23.010Z,81.35
2023-02-02T23:26:51.010Z,81.85
2023-02-02T23:29:18.717Z,81.39
2023-02-02T23:31:46.393Z,81.63
2023-02-02T23:34:14.060Z,81.81
2023-02-02T23:36:42.957Z,81.29
2023-02-02T23:39:10.574Z,81.80
2023-02-02T23:45:50.581Z,81.95
2023-02-02T23:48:18.540Z,81.73
2023-02-02T23:50:46.915Z,81.63
2023-02-02T23:53:16.112Z,81.19
2023-02-02T23:55:45.595Z,80.79
2023-02-02T23:58:13.909Z,81.06
